createdAt,value
2017-01-29T00:00:05.498Z,0
2017-01-29T00:02:36.453Z,0
2017-01-29T00:03:17.870Z,0
2017-01-29T00:03:59.344Z,0
2017-01-29T00:04:41.021Z,0
2017-01-29T00:06:56.287Z,0
2017-01-29T00:07:37.818Z,0
2017-01-29T00:08:18.859Z,0
2017-01-29T00:10:39.263Z,0
2017-01-29T00:13:15.462Z,0
2017-01-29T00:13:57.064Z,0
2017-01-29T00:14:38.664Z,0
2017-01-29T00:17:09.170Z,0
2017-01-29T00:17:50.686Z,0
2017-01-29T00:20:32.276Z,0
2017-01-29T00:21:14.003Z,0
2017-01-29T00:21:55.483Z,0
2017-01-29T00:22:37.055Z,0
2017-01-29T00:23:18.735Z,0
2017-01-29T00:25:55.227Z,0
2017-01-29T00:26:37.037Z,0
2017-01-29T00:29:08.191Z,0
2017-01-29T00:29:49.994Z,0
2017-01-29T00:30:31.778Z,0
2017-01-29T00:31:13.516Z,0
2017-01-29T00:31:55.272Z,0
2017-01-29T00:34:16.000Z,0
2017-01-29T00:34:57.794Z,0
2017-01-29T00:35:39.475Z,0
2017-01-29T00:38:15.595Z,0
2017-01-29T00:38:57.117Z,0
2017-01-29T00:39:38.899Z,0
2017-01-29T00:40:20.460Z,0
2017-01-29T00:41:02.016Z,0
2017-01-29T00:41:43.682Z,0
2017-01-29T00:42:25.385Z,0
2017-01-29T00:43:06.852Z,0
2017-01-29T00:43:48.624Z,0
2017-01-29T00:44:30.353Z,0
2017-01-29T00:45:12.185Z,0
2017-01-29T00:45:53.948Z,0
2017-01-29T00:46:35.475Z,0
2017-01-29T00:47:17.156Z,0
2017-01-29T00:47:58.477Z,0
2017-01-29T00:48:40.144Z,0
2017-01-29T00:49:21.492Z,0
2017-01-29T00:50:03.205Z,0
2017-01-29T00:50:44.723Z,0
2017-01-29T00:51:26.228Z,0
2017-01-29T00:52:07.804Z,0
2017-01-29T00:52:49.735Z,0
2017-01-29T00:53:31.459Z,0
2017-01-29T00:54:13.054Z,0
2017-01-29T00:54:54.698Z,0
2017-01-29T00:55:36.398Z,0
2017-01-29T00:56:18.063Z,0
2017-01-29T00:56:59.894Z,0
2017-01-29T00:57:41.485Z,0
2017-01-29T00:58:23.362Z,0
2017-01-29T00:59:05.011Z,0
2017-01-29T00:59:46.731Z,0
2017-01-29T01:00:28.397Z,0
2017-01-29T01:01:10.056Z,0
2017-01-29T01:01:51.727Z,0
2017-01-29T01:02:33.415Z,0
2017-01-29T01:03:15.033Z,0
2017-01-29T01:03:56.420Z,0
2017-01-29T01:04:38.041Z,0
2017-01-29T01:05:19.497Z,0
2017-01-29T01:06:01.144Z,0
2017-01-29T01:06:42.563Z,0
2017-01-29T01:07:24.066Z,0
2017-01-29T01:08:05.197Z,0
2017-01-29T01:08:46.729Z,0
2017-01-29T01:09:27.984Z,0
2017-01-29T01:10:09.671Z,0
2017-01-29T01:10:51.365Z,0
2017-01-29T01:11:33.079Z,0
2017-01-29T01:12:14.838Z,0
2017-01-29T01:12:56.495Z,0
2017-01-29T01:13:38.064Z,0
2017-01-29T01:14:19.724Z,0
2017-01-29T01:15:01.431Z,0
2017-01-29T01:15:43.212Z,0
2017-01-29T01:16:24.793Z,0
2017-01-29T01:17:06.679Z,0
2017-01-29T01:17:48.269Z,0
2017-01-29T01:18:30.060Z,0
2017-01-29T01:19:11.648Z,0
2017-01-29T01:19:53.342Z,0
2017-01-29T01:20:35.117Z,0
2017-01-29T01:21:16.883Z,0
2017-01-29T01:21:58.435Z,0
2017-01-29T01:22:40.250Z,0
2017-01-29T01:23:22.005Z,0
2017-01-29T01:24:03.673Z,0
2017-01-29T01:24:45.476Z,0
2017-01-29T01:25:27.301Z,0
2017-01-29T01:26:09.144Z,0
2017-01-29T01:26:50.902Z,0
2017-01-29T01:27:32.669Z,0
2017-01-29T01:28:14.434Z,0
2017-01-29T01:28:56.176Z,0
2017-01-29T01:29:37.928Z,0
2017-01-29T01:30:19.668Z,0
2017-01-29T01:31:01.428Z,0
2017-01-29T01:31:43.071Z,0
2017-01-29T01:32:24.671Z,0
2017-01-29T01:33:06.196Z,0
2017-01-29T01:33:47.719Z,0
2017-01-29T01:36:03.092Z,0
2017-01-29T01:36:44.824Z,0
2017-01-29T01:41:15.361Z,0
2017-01-29T01:43:51.261Z,0
2017-01-29T01:44:32.972Z,0
2017-01-29T01:45:14.622Z,0
2017-01-29T01:45:56.306Z,0
2017-01-29T01:46:38.085Z,0
2017-01-29T01:47:19.606Z,0
2017-01-29T01:48:01.351Z,0
2017-01-29T01:48:43.093Z,0
2017-01-29T01:49:24.723Z,0
2017-01-29T01:50:06.078Z,0
2017-01-29T01:50:47.662Z,0
2017-01-29T01:51:29.101Z,0
2017-01-29T01:52:10.691Z,0
2017-01-29T01:52:52.354Z,0
2017-01-29T01:53:34.063Z,0
2017-01-29T01:54:15.312Z,0
2017-01-29T01:54:56.968Z,0
2017-01-29T01:55:38.258Z,0
2017-01-29T01:58:20.100Z,0
2017-01-29T01:59:01.835Z,0
2017-01-29T01:59:43.541Z,0
2017-01-29T02:00:25.147Z,0
2017-01-29T02:01:06.306Z,0
2017-01-29T02:01:47.782Z,0
2017-01-29T02:02:28.318Z,0
2017-01-29T02:03:08.852Z,0
2017-01-29T02:03:49.383Z,0
2017-01-29T02:04:29.912Z,0
2017-01-29T02:05:10.442Z,0
2017-01-29T02:05:50.971Z,0
2017-01-29T02:06:31.502Z,0
2017-01-29T02:07:12.033Z,0
2017-01-29T02:07:52.587Z,0
2017-01-29T02:08:33.119Z,0
2017-01-29T02:09:13.655Z,0
2017-01-29T02:09:54.186Z,0
2017-01-29T02:10:34.713Z,0
2017-01-29T02:11:15.253Z,0
2017-01-29T02:11:55.786Z,0
2017-01-29T02:12:36.318Z,0
2017-01-29T02:13:16.838Z,0
2017-01-29T02:13:57.370Z,0
2017-01-29T02:14:37.904Z,0
2017-01-29T02:15:18.441Z,0
2017-01-29T02:15:58.960Z,0
2017-01-29T02:16:39.491Z,0
2017-01-29T02:17:19.999Z,0
2017-01-29T02:18:00.543Z,0
2017-01-29T02:18:41.078Z,0
2017-01-29T02:19:21.605Z,0
2017-01-29T02:20:02.137Z,0
2017-01-29T02:20:42.669Z,0
2017-01-29T02:21:23.208Z,0
2017-01-29T02:22:03.745Z,0
2017-01-29T02:22:44.278Z,0
2017-01-29T02:23:24.808Z,0
2017-01-29T02:24:05.385Z,0
2017-01-29T02:24:45.922Z,0
2017-01-29T02:25:26.455Z,0
2017-01-29T02:26:06.999Z,0
2017-01-29T02:26:47.535Z,0
2017-01-29T02:27:28.068Z,0
2017-01-29T02:28:08.601Z,0
2017-01-29T02:28:49.132Z,0
2017-01-29T02:29:29.665Z,0
2017-01-29T02:30:10.196Z,0
2017-01-29T02:30:50.728Z,0
2017-01-29T02:31:31.266Z,0
2017-01-29T02:32:11.803Z,0
2017-01-29T02:32:52.335Z,0
2017-01-29T02:33:32.868Z,0
2017-01-29T02:34:13.400Z,0
2017-01-29T02:34:53.934Z,0
2017-01-29T02:35:34.469Z,0
2017-01-29T02:36:15.012Z,0
2017-01-29T02:36:55.543Z,0
2017-01-29T02:37:36.058Z,0
2017-01-29T02:38:16.586Z,0
2017-01-29T02:38:57.120Z,0
2017-01-29T02:39:37.653Z,0
2017-01-29T02:40:18.188Z,0
2017-01-29T02:40:58.720Z,0
2017-01-29T02:41:39.248Z,0
2017-01-29T02:42:19.778Z,0
2017-01-29T02:43:00.316Z,0
2017-01-29T02:43:40.852Z,0
2017-01-29T02:44:21.391Z,0
2017-01-29T02:45:01.923Z,0
2017-01-29T02:45:42.462Z,0
2017-01-29T02:46:22.998Z,0
2017-01-29T02:47:03.530Z,0
2017-01-29T02:47:44.062Z,0
2017-01-29T02:48:24.594Z,0
2017-01-29T02:49:05.124Z,0
2017-01-29T02:49:45.660Z,0
2017-01-29T02:50:26.194Z,0
2017-01-29T02:51:06.729Z,0
2017-01-29T02:51:47.263Z,0
2017-01-29T02:52:27.797Z,0
2017-01-29T02:53:08.329Z,0
2017-01-29T02:53:48.862Z,0
2017-01-29T02:54:29.394Z,0
2017-01-29T02:55:09.934Z,0
2017-01-29T02:55:50.475Z,0
2017-01-29T02:56:31.004Z,0
2017-01-29T02:57:11.539Z,0
2017-01-29T02:57:52.069Z,0
2017-01-29T02:58:32.601Z,0
2017-01-29T02:59:13.128Z,0
2017-01-29T02:59:53.675Z,0
2017-01-29T03:00:34.211Z,0
2017-01-29T03:01:14.745Z,0
2017-01-29T03:01:55.275Z,0
2017-01-29T03:02:35.803Z,0
2017-01-29T03:03:16.339Z,0
2017-01-29T03:03:56.874Z,0
2017-01-29T03:04:37.407Z,0
2017-01-29T03:05:17.940Z,0
2017-01-29T03:05:58.474Z,0
2017-01-29T03:06:39.006Z,0
2017-01-29T03:07:19.536Z,0
2017-01-29T03:08:00.077Z,0
2017-01-29T03:08:40.612Z,0
2017-01-29T03:09:21.139Z,0
2017-01-29T03:10:01.666Z,0
2017-01-29T03:10:42.196Z,0
2017-01-29T03:11:22.725Z,0
2017-01-29T03:12:03.301Z,0
2017-01-29T03:12:43.834Z,0
2017-01-29T03:13:24.372Z,0
2017-01-29T03:14:04.924Z,0
2017-01-29T03:14:45.446Z,0
2017-01-29T03:15:25.979Z,0
2017-01-29T03:16:06.510Z,0
2017-01-29T03:16:47.049Z,0
2017-01-29T03:17:27.586Z,0
2017-01-29T03:18:08.118Z,0
2017-01-29T03:18:48.652Z,0
2017-01-29T03:19:29.187Z,0
2017-01-29T03:20:09.712Z,0
2017-01-29T03:20:50.252Z,0
2017-01-29T03:21:30.788Z,0
2017-01-29T03:22:11.320Z,0
2017-01-29T03:22:51.851Z,0
2017-01-29T03:23:32.383Z,0
2017-01-29T03:24:12.918Z,0
2017-01-29T03:24:53.453Z,0
2017-01-29T03:25:33.990Z,0
2017-01-29T03:26:14.523Z,0
2017-01-29T03:26:55.056Z,0
2017-01-29T03:27:35.591Z,0
2017-01-29T03:28:16.140Z,0
2017-01-29T03:28:56.685Z,0
2017-01-29T03:29:37.195Z,0
2017-01-29T03:30:17.735Z,0
2017-01-29T03:30:58.269Z,0
2017-01-29T03:31:38.799Z,0
2017-01-29T03:32:19.343Z,0
2017-01-29T03:32:59.874Z,0
2017-01-29T03:33:40.413Z,0
2017-01-29T03:34:20.938Z,0
2017-01-29T03:35:01.478Z,0
2017-01-29T03:35:42.009Z,0
2017-01-29T03:36:22.537Z,0
2017-01-29T03:37:03.070Z,0
2017-01-29T03:37:43.602Z,0
2017-01-29T03:38:24.140Z,0
2017-01-29T03:39:04.680Z,0
2017-01-29T03:39:45.205Z,0
2017-01-29T03:40:25.738Z,0
2017-01-29T03:41:06.271Z,0
2017-01-29T03:41:46.803Z,0
2017-01-29T03:42:27.335Z,0
2017-01-29T03:43:07.866Z,0
2017-01-29T03:43:48.391Z,0
2017-01-29T03:44:28.917Z,0
2017-01-29T03:45:09.449Z,0
2017-01-29T03:45:49.990Z,0
2017-01-29T03:46:30.518Z,0
2017-01-29T03:47:11.050Z,0
2017-01-29T03:47:51.585Z,0
2017-01-29T03:48:34.946Z,0
2017-01-29T03:49:15.478Z,0
2017-01-29T03:49:56.011Z,0
2017-01-29T03:50:36.543Z,0
2017-01-29T03:51:17.075Z,0
2017-01-29T03:51:57.611Z,0
2017-01-29T03:52:38.147Z,0
2017-01-29T03:53:18.682Z,0
2017-01-29T03:53:59.220Z,0
2017-01-29T03:54:39.755Z,0
2017-01-29T03:55:20.290Z,0
2017-01-29T03:56:00.877Z,0
2017-01-29T03:56:41.407Z,0
2017-01-29T03:57:21.943Z,0
2017-01-29T03:58:02.481Z,0
2017-01-29T03:58:43.011Z,0
2017-01-29T03:59:23.548Z,0
2017-01-29T04:00:04.089Z,0
2017-01-29T04:00:44.621Z,0
2017-01-29T04:01:25.154Z,0
2017-01-29T04:02:05.688Z,0
2017-01-29T04:02:46.224Z,0
2017-01-29T04:03:26.755Z,0
2017-01-29T04:04:07.289Z,0
2017-01-29T04:04:47.822Z,0
2017-01-29T04:05:28.354Z,0
2017-01-29T04:06:08.891Z,0
2017-01-29T04:06:49.416Z,0
2017-01-29T04:07:29.949Z,0
2017-01-29T04:08:10.483Z,0
2017-01-29T04:08:51.018Z,0
2017-01-29T04:09:31.552Z,0
2017-01-29T04:10:12.102Z,0
2017-01-29T04:10:52.608Z,0
2017-01-29T04:11:33.146Z,0
2017-01-29T04:12:13.684Z,0
2017-01-29T04:12:54.218Z,0
2017-01-29T04:13:34.754Z,0
2017-01-29T04:14:15.293Z,0
2017-01-29T04:14:55.823Z,0
2017-01-29T04:15:36.357Z,0
2017-01-29T04:16:16.890Z,0
2017-01-29T04:16:57.424Z,0
2017-01-29T04:17:37.961Z,0
2017-01-29T04:18:18.496Z,0
2017-01-29T04:18:59.036Z,0
2017-01-29T04:19:39.574Z,0
2017-01-29T04:20:20.105Z,0
2017-01-29T04:21:00.633Z,0
2017-01-29T04:21:41.169Z,0
2017-01-29T04:22:21.736Z,0
2017-01-29T04:23:02.270Z,0
2017-01-29T04:23:42.835Z,0
2017-01-29T04:24:23.343Z,0
2017-01-29T04:25:03.880Z,0
2017-01-29T04:25:44.408Z,0
2017-01-29T04:26:24.942Z,0
2017-01-29T04:27:05.478Z,0
2017-01-29T04:27:46.012Z,0
2017-01-29T04:28:26.545Z,0
2017-01-29T04:29:07.082Z,0
2017-01-29T04:29:47.608Z,0
2017-01-29T04:30:28.145Z,0
2017-01-29T04:31:08.680Z,0
2017-01-29T04:31:49.221Z,0
2017-01-29T04:32:29.752Z,0
2017-01-29T04:33:10.288Z,0
2017-01-29T04:33:50.816Z,0
2017-01-29T04:34:31.344Z,0
2017-01-29T04:35:11.877Z,0
2017-01-29T04:35:52.411Z,0
2017-01-29T04:36:32.944Z,0
2017-01-29T04:37:13.485Z,0
2017-01-29T04:37:54.027Z,0
2017-01-29T04:38:34.555Z,0
2017-01-29T04:39:15.093Z,0
2017-01-29T04:39:55.626Z,0
2017-01-29T04:40:36.162Z,0
2017-01-29T04:41:16.699Z,0
2017-01-29T04:41:57.235Z,0
2017-01-29T04:42:37.772Z,0
2017-01-29T04:43:18.302Z,0
2017-01-29T04:43:58.837Z,0
2017-01-29T04:44:39.380Z,0
2017-01-29T04:45:19.918Z,0
2017-01-29T04:46:00.454Z,0
2017-01-29T04:46:40.986Z,0
2017-01-29T04:47:21.520Z,0
2017-01-29T04:48:02.061Z,0
2017-01-29T04:48:42.602Z,0
2017-01-29T04:49:23.139Z,0
2017-01-29T04:50:03.672Z,0
2017-01-29T04:50:44.204Z,0
2017-01-29T04:51:24.742Z,0
2017-01-29T04:52:05.272Z,0
2017-01-29T04:52:45.808Z,0
2017-01-29T04:53:26.346Z,0
2017-01-29T04:54:06.888Z,0
2017-01-29T04:54:47.426Z,0
2017-01-29T04:55:27.976Z,0
2017-01-29T04:56:08.496Z,0
2017-01-29T04:56:49.028Z,0
2017-01-29T04:57:29.565Z,0
2017-01-29T04:58:10.104Z,0
2017-01-29T04:58:50.642Z,0
2017-01-29T04:59:31.179Z,0
2017-01-29T05:00:11.714Z,0
2017-01-29T05:00:52.269Z,0
2017-01-29T05:01:32.793Z,0
2017-01-29T05:02:13.323Z,0
2017-01-29T05:02:53.858Z,0
2017-01-29T05:03:34.396Z,0
2017-01-29T05:04:14.931Z,0
2017-01-29T05:04:55.467Z,0
2017-01-29T05:05:36.001Z,0
2017-01-29T05:06:16.650Z,0
2017-01-29T05:06:57.630Z,0
2017-01-29T05:07:38.193Z,0
2017-01-29T05:08:18.728Z,0
2017-01-29T05:08:59.254Z,0
2017-01-29T05:09:39.791Z,0
2017-01-29T05:10:20.322Z,0
2017-01-29T05:11:00.858Z,0
2017-01-29T05:11:41.393Z,0
2017-01-29T05:12:21.935Z,0
2017-01-29T05:13:02.466Z,0
2017-01-29T05:13:43.003Z,0
2017-01-29T05:14:23.537Z,0
2017-01-29T05:15:04.069Z,0
2017-01-29T05:15:44.604Z,0
2017-01-29T05:16:25.143Z,0
2017-01-29T05:17:05.677Z,0
2017-01-29T05:17:46.206Z,0
2017-01-29T05:18:26.747Z,0
2017-01-29T05:19:07.277Z,0
2017-01-29T05:19:47.811Z,0
2017-01-29T05:20:28.350Z,0
2017-01-29T05:21:08.890Z,0
2017-01-29T05:21:49.422Z,0
2017-01-29T05:22:29.956Z,0
2017-01-29T05:23:10.491Z,0
2017-01-29T05:23:51.033Z,0
2017-01-29T05:24:31.565Z,0
2017-01-29T05:25:12.103Z,0
2017-01-29T05:25:52.643Z,0
2017-01-29T05:26:33.180Z,0
2017-01-29T05:27:13.714Z,0
2017-01-29T05:27:54.244Z,0
2017-01-29T05:28:34.810Z,0
2017-01-29T05:29:15.352Z,0
2017-01-29T05:29:55.889Z,0
2017-01-29T05:30:36.420Z,0
2017-01-29T05:31:16.961Z,0
2017-01-29T05:31:57.494Z,0
2017-01-29T05:32:38.034Z,0
2017-01-29T05:33:18.563Z,0
2017-01-29T05:33:59.109Z,0
2017-01-29T05:34:39.642Z,0
2017-01-29T05:35:20.187Z,0
2017-01-29T05:36:00.724Z,0
2017-01-29T05:36:41.266Z,0
2017-01-29T05:37:21.797Z,0
2017-01-29T05:38:02.340Z,0
2017-01-29T05:38:42.867Z,0
2017-01-29T05:39:23.403Z,0
2017-01-29T05:40:03.940Z,0
2017-01-29T05:40:44.478Z,0
2017-01-29T05:41:25.012Z,0
2017-01-29T05:42:05.556Z,0
2017-01-29T05:42:46.089Z,0
2017-01-29T05:43:26.614Z,0
2017-01-29T05:44:07.149Z,0
2017-01-29T05:44:47.682Z,0
2017-01-29T05:45:28.219Z,0
2017-01-29T05:46:08.816Z,0
2017-01-29T05:46:49.290Z,0
2017-01-29T05:47:29.820Z,0
2017-01-29T05:48:10.356Z,0
2017-01-29T05:48:50.898Z,0
2017-01-29T05:49:31.436Z,0
2017-01-29T05:50:11.977Z,0
2017-01-29T05:50:52.512Z,0
2017-01-29T05:51:33.037Z,0
2017-01-29T05:52:13.572Z,0
2017-01-29T05:52:54.107Z,0
2017-01-29T05:53:34.642Z,0
2017-01-29T05:54:15.187Z,0
2017-01-29T05:54:55.725Z,0
2017-01-29T05:55:36.275Z,0
2017-01-29T05:56:16.801Z,0
2017-01-29T05:56:57.336Z,0
2017-01-29T05:57:37.862Z,0
2017-01-29T05:58:18.409Z,0
2017-01-29T05:58:59.147Z,0
2017-01-29T05:59:39.684Z,0
2017-01-29T06:00:20.248Z,0
2017-01-29T06:01:00.781Z,0
2017-01-29T06:01:41.332Z,0
2017-01-29T06:02:21.857Z,0
2017-01-29T06:03:02.390Z,0
2017-01-29T06:03:42.925Z,0
2017-01-29T06:04:23.455Z,0
2017-01-29T06:05:04.028Z,0
2017-01-29T06:05:44.535Z,0
2017-01-29T06:06:25.087Z,0
2017-01-29T06:07:05.606Z,0
2017-01-29T06:07:46.145Z,0
2017-01-29T06:08:26.676Z,0
2017-01-29T06:09:07.219Z,0
2017-01-29T06:09:47.758Z,0
2017-01-29T06:10:28.289Z,0
2017-01-29T06:11:08.835Z,0
2017-01-29T06:11:49.660Z,0
2017-01-29T06:12:30.210Z,0
2017-01-29T06:13:10.742Z,0
2017-01-29T06:13:51.282Z,0
2017-01-29T06:14:31.817Z,0
2017-01-29T06:15:12.344Z,0
2017-01-29T06:15:52.869Z,0
2017-01-29T06:16:33.402Z,0
2017-01-29T06:17:13.937Z,0
2017-01-29T06:17:54.467Z,0
2017-01-29T06:18:35.004Z,0
2017-01-29T06:19:15.519Z,0
2017-01-29T06:19:56.053Z,0
2017-01-29T06:20:36.588Z,0
2017-01-29T06:21:17.131Z,0
2017-01-29T06:21:57.669Z,0
2017-01-29T06:22:38.205Z,0
2017-01-29T06:23:18.743Z,0
2017-01-29T06:23:59.270Z,0
2017-01-29T06:24:39.806Z,0
2017-01-29T06:25:20.341Z,0
2017-01-29T06:26:00.879Z,0
2017-01-29T06:26:41.434Z,0
2017-01-29T06:27:21.968Z,0
2017-01-29T06:28:02.504Z,0
2017-01-29T06:28:43.033Z,0
2017-01-29T06:29:23.569Z,0
2017-01-29T06:30:04.090Z,0
2017-01-29T06:30:44.612Z,0
2017-01-29T06:31:25.154Z,0
2017-01-29T06:32:05.689Z,0
2017-01-29T06:32:46.252Z,0
2017-01-29T06:33:26.754Z,0
2017-01-29T06:34:07.510Z,0
2017-01-29T06:34:48.044Z,0
2017-01-29T06:35:28.573Z,0
2017-01-29T06:36:09.112Z,0
2017-01-29T06:36:49.634Z,0
2017-01-29T06:37:30.160Z,0
2017-01-29T06:38:10.700Z,0
2017-01-29T06:38:51.234Z,0
2017-01-29T06:39:31.775Z,0
2017-01-29T06:40:12.298Z,0
2017-01-29T06:40:52.831Z,0
2017-01-29T06:41:33.371Z,0
2017-01-29T06:42:13.898Z,0
2017-01-29T06:42:54.439Z,0
2017-01-29T06:43:34.976Z,0
2017-01-29T06:44:15.508Z,0
2017-01-29T06:44:56.040Z,0
2017-01-29T06:45:36.580Z,0
2017-01-29T06:46:17.119Z,0
2017-01-29T06:46:57.684Z,0
2017-01-29T06:47:38.220Z,0
2017-01-29T06:48:18.756Z,0
2017-01-29T06:48:59.293Z,0
2017-01-29T06:49:40.051Z,0
2017-01-29T06:50:20.595Z,0
2017-01-29T06:51:01.127Z,0
2017-01-29T06:51:41.658Z,0
2017-01-29T06:52:22.191Z,0
2017-01-29T06:53:02.725Z,0
2017-01-29T06:53:43.263Z,0
2017-01-29T06:54:23.795Z,0
2017-01-29T06:55:04.330Z,0
2017-01-29T06:55:44.861Z,0
2017-01-29T06:56:25.393Z,0
2017-01-29T06:57:05.930Z,0
2017-01-29T06:57:46.463Z,0
2017-01-29T06:58:27.002Z,0
2017-01-29T06:59:07.670Z,0
2017-01-29T06:59:48.205Z,0
2017-01-29T07:00:28.740Z,0
2017-01-29T07:01:09.284Z,0
2017-01-29T07:01:49.813Z,0
2017-01-29T07:02:30.341Z,0
2017-01-29T07:03:10.872Z,0
2017-01-29T07:03:51.408Z,0
2017-01-29T07:04:31.952Z,0
2017-01-29T07:05:12.473Z,0
2017-01-29T07:05:53.003Z,0
2017-01-29T07:06:33.537Z,0
2017-01-29T07:07:14.075Z,0
2017-01-29T07:07:54.609Z,0
2017-01-29T07:08:35.140Z,0
2017-01-29T07:09:15.676Z,5
2017-01-29T07:09:56.206Z,5
2017-01-29T07:10:36.741Z,5
2017-01-29T07:11:17.276Z,5
2017-01-29T07:11:57.813Z,5
2017-01-29T07:12:38.359Z,5
2017-01-29T07:13:18.863Z,5
2017-01-29T07:13:59.390Z,5
2017-01-29T07:14:39.927Z,5
2017-01-29T07:15:20.463Z,5
2017-01-29T07:16:01.023Z,5
2017-01-29T07:16:41.524Z,5
2017-01-29T07:17:22.048Z,5
2017-01-29T07:18:02.583Z,10
2017-01-29T07:18:43.121Z,10
2017-01-29T07:19:24.514Z,10
2017-01-29T07:20:05.051Z,10
2017-01-29T07:20:45.586Z,10
2017-01-29T07:21:26.579Z,10
2017-01-29T07:22:07.683Z,15
2017-01-29T07:22:49.463Z,15
2017-01-29T07:23:29.985Z,15
2017-01-29T07:24:10.529Z,15
2017-01-29T07:24:51.065Z,15
2017-01-29T07:25:31.605Z,15
2017-01-29T07:26:12.140Z,15
2017-01-29T07:26:52.674Z,20
2017-01-29T07:27:33.209Z,20
2017-01-29T07:28:13.742Z,20
2017-01-29T07:28:54.283Z,20
2017-01-29T07:29:34.812Z,20
2017-01-29T07:30:15.390Z,20
2017-01-29T07:30:55.924Z,20
2017-01-29T07:31:36.542Z,25
2017-01-29T07:32:17.086Z,25
2017-01-29T07:32:58.660Z,25
2017-01-29T07:33:40.085Z,25
2017-01-29T07:34:20.623Z,25
2017-01-29T07:35:01.156Z,25
2017-01-29T07:35:41.695Z,25
2017-01-29T07:36:22.240Z,25
2017-01-29T07:37:02.779Z,25
2017-01-29T07:37:43.314Z,30
2017-01-29T07:38:23.848Z,30
2017-01-29T07:39:04.387Z,30
2017-01-29T07:39:44.916Z,30
2017-01-29T07:40:25.455Z,30
2017-01-29T07:41:05.992Z,30
2017-01-29T07:41:46.507Z,30
2017-01-29T07:42:27.069Z,30
2017-01-29T07:43:07.576Z,35
2017-01-29T07:43:48.119Z,35
2017-01-29T07:44:28.655Z,35
2017-01-29T07:45:09.198Z,35
2017-01-29T07:45:49.739Z,35
2017-01-29T07:46:30.275Z,40
2017-01-29T07:47:11.053Z,40
2017-01-29T07:47:51.593Z,40
2017-01-29T07:48:32.123Z,40
2017-01-29T07:49:12.662Z,40
2017-01-29T07:49:53.185Z,45
2017-01-29T07:50:33.721Z,45
2017-01-29T07:51:14.267Z,45
2017-01-29T07:51:54.796Z,45
2017-01-29T07:52:35.318Z,45
2017-01-29T07:53:15.855Z,50
2017-01-29T07:53:56.386Z,50
2017-01-29T07:54:36.919Z,50
2017-01-29T07:55:17.459Z,50
2017-01-29T07:55:58.000Z,50
2017-01-29T07:56:38.532Z,50
2017-01-29T07:57:19.055Z,55
2017-01-29T07:57:59.570Z,55
2017-01-29T07:58:40.134Z,55
2017-01-29T07:59:20.674Z,55
2017-01-29T08:00:01.206Z,60
2017-01-29T08:00:41.742Z,60
2017-01-29T08:01:22.271Z,60
2017-01-29T08:02:02.825Z,65
2017-01-29T08:02:43.357Z,70
2017-01-29T08:03:23.870Z,70
2017-01-29T08:04:04.404Z,70
2017-01-29T08:04:44.936Z,70
2017-01-29T08:05:25.467Z,70
2017-01-29T08:06:06.000Z,60
2017-01-29T08:06:46.539Z,55
2017-01-29T08:07:27.078Z,55
2017-01-29T08:08:07.614Z,50
2017-01-29T08:08:48.157Z,45
2017-01-29T08:09:28.694Z,40
2017-01-29T08:10:09.219Z,40
2017-01-29T08:10:49.757Z,45
2017-01-29T08:11:30.310Z,45
2017-01-29T08:12:10.831Z,40
2017-01-29T08:12:51.372Z,45
2017-01-29T08:13:31.917Z,45
2017-01-29T08:14:12.440Z,50
2017-01-29T08:14:52.974Z,60
2017-01-29T08:15:33.508Z,65
2017-01-29T08:16:14.514Z,65
2017-01-29T08:16:55.047Z,70
2017-01-29T08:17:35.573Z,75
2017-01-29T08:18:16.096Z,75
2017-01-29T08:18:56.629Z,80
2017-01-29T08:19:37.160Z,75
2017-01-29T08:20:17.697Z,80
2017-01-29T08:20:58.235Z,75
2017-01-29T08:21:38.772Z,70
2017-01-29T08:22:19.311Z,70
2017-01-29T08:22:59.850Z,75
2017-01-29T08:23:40.390Z,75
2017-01-29T08:24:20.909Z,80
2017-01-29T08:25:01.449Z,75
2017-01-29T08:25:41.985Z,85
2017-01-29T08:26:22.521Z,90
2017-01-29T08:27:03.053Z,105
2017-01-29T08:27:43.587Z,100
2017-01-29T08:28:24.142Z,95
2017-01-29T08:29:04.676Z,90
2017-01-29T08:29:45.202Z,95
2017-01-29T08:30:25.733Z,105
2017-01-29T08:31:06.267Z,110
2017-01-29T08:31:46.796Z,105
2017-01-29T08:32:27.336Z,105
2017-01-29T08:33:07.876Z,120
2017-01-29T08:33:48.399Z,115
2017-01-29T08:34:28.937Z,110
2017-01-29T08:35:09.472Z,105
2017-01-29T08:35:50.000Z,110
2017-01-29T08:36:30.542Z,120
2017-01-29T08:37:11.071Z,125
2017-01-29T08:37:51.608Z,125
2017-01-29T08:38:32.152Z,130
2017-01-29T08:39:12.667Z,125
2017-01-29T08:39:53.212Z,125
2017-01-29T08:40:33.748Z,120
2017-01-29T08:41:14.293Z,115
2017-01-29T08:41:54.832Z,120
2017-01-29T08:42:35.374Z,115
2017-01-29T08:43:15.904Z,115
2017-01-29T08:43:56.440Z,115
2017-01-29T08:44:36.969Z,110
2017-01-29T08:45:17.510Z,110
2017-01-29T08:45:58.048Z,110
2017-01-29T08:46:38.578Z,115
2017-01-29T08:47:19.102Z,120
2017-01-29T08:47:59.634Z,125
2017-01-29T08:48:40.169Z,130
2017-01-29T08:50:05.645Z,130
2017-01-29T08:50:46.178Z,125
2017-01-29T08:51:28.363Z,130
2017-01-29T08:52:11.279Z,140
2017-01-29T08:52:53.757Z,150
2017-01-29T08:53:36.398Z,155
2017-01-29T08:56:22.936Z,135
2017-01-29T08:57:03.468Z,140
2017-01-29T08:57:44.009Z,140
2017-01-29T08:58:24.563Z,120
2017-01-29T08:59:05.080Z,120
2017-01-29T08:59:45.607Z,110
2017-01-29T09:00:26.125Z,115
2017-01-29T09:01:06.672Z,115
2017-01-29T09:01:47.203Z,115
2017-01-29T09:02:27.750Z,120
2017-01-29T09:03:08.272Z,135
2017-01-29T09:03:48.807Z,145
2017-01-29T09:04:29.338Z,155
2017-01-29T09:05:09.877Z,150
2017-01-29T09:05:50.409Z,165
2017-01-29T09:06:30.957Z,180
2017-01-29T09:07:11.484Z,200
2017-01-29T09:07:52.024Z,160
2017-01-29T09:08:32.568Z,130
2017-01-29T09:09:13.095Z,105
2017-01-29T09:09:53.632Z,95
2017-01-29T09:10:34.167Z,75
2017-01-29T09:11:14.706Z,70
2017-01-29T09:11:55.241Z,70
2017-01-29T09:12:35.777Z,75
2017-01-29T09:13:16.314Z,80
2017-01-29T09:13:56.852Z,80
2017-01-29T09:14:37.392Z,90
2017-01-29T09:15:17.927Z,100
2017-01-29T09:15:58.464Z,100
2017-01-29T09:16:38.996Z,100
2017-01-29T09:17:19.532Z,80
2017-01-29T09:18:00.060Z,95
2017-01-29T09:18:40.594Z,85
2017-01-29T09:19:21.133Z,75
2017-01-29T09:20:01.665Z,70
2017-01-29T09:20:42.202Z,80
2017-01-29T09:21:22.739Z,70
2017-01-29T09:22:03.267Z,65
2017-01-29T09:22:43.795Z,65
2017-01-29T09:23:24.336Z,65
2017-01-29T09:24:04.871Z,75
2017-01-29T09:24:45.407Z,80
2017-01-29T09:25:25.945Z,65
2017-01-29T09:26:06.480Z,50
2017-01-29T09:26:47.011Z,50
2017-01-29T09:27:27.540Z,60
2017-01-29T09:28:08.072Z,75
2017-01-29T09:28:50.540Z,75
2017-01-29T09:29:31.082Z,75
2017-01-29T09:30:11.606Z,65
2017-01-29T09:30:52.140Z,65
2017-01-29T09:31:32.679Z,80
2017-01-29T09:32:13.209Z,70
2017-01-29T09:32:53.742Z,80
2017-01-29T09:33:34.282Z,95
2017-01-29T09:34:14.816Z,105
2017-01-29T09:34:55.342Z,100
2017-01-29T09:35:35.876Z,95
2017-01-29T09:36:16.419Z,90
2017-01-29T09:36:56.939Z,75
2017-01-29T09:37:37.480Z,75
2017-01-29T09:38:18.016Z,80
2017-01-29T09:38:58.544Z,90
2017-01-29T09:39:39.082Z,75
2017-01-29T09:40:19.623Z,80
2017-01-29T09:41:00.160Z,115
2017-01-29T09:41:40.690Z,135
2017-01-29T09:42:21.228Z,130
2017-01-29T09:43:01.758Z,105
2017-01-29T09:43:42.298Z,100
2017-01-29T09:44:22.834Z,110
2017-01-29T09:45:03.378Z,135
2017-01-29T09:45:43.892Z,175
2017-01-29T09:46:24.436Z,235
2017-01-29T09:47:04.967Z,245
2017-01-29T09:47:45.513Z,305
2017-01-29T09:48:26.052Z,335
2017-01-29T09:49:06.584Z,280
2017-01-29T09:49:47.122Z,255
2017-01-29T09:50:27.656Z,200
2017-01-29T09:51:08.194Z,200
2017-01-29T09:51:48.731Z,195
2017-01-29T09:52:29.269Z,195
2017-01-29T09:53:09.805Z,175
2017-01-29T09:53:50.341Z,165
2017-01-29T09:54:30.900Z,185
2017-01-29T09:55:11.452Z,210
2017-01-29T09:55:51.989Z,320
2017-01-29T09:56:32.530Z,285
2017-01-29T09:57:13.069Z,235
2017-01-29T09:57:53.600Z,290
2017-01-29T09:58:34.135Z,310
2017-01-29T09:59:14.665Z,285
2017-01-29T09:59:55.193Z,310
2017-01-29T10:00:35.721Z,360
2017-01-29T10:01:16.261Z,240
2017-01-29T10:01:56.795Z,165
2017-01-29T10:02:37.318Z,150
2017-01-29T10:03:17.859Z,125
2017-01-29T10:03:58.395Z,105
2017-01-29T10:04:38.933Z,105
2017-01-29T10:05:19.476Z,115
2017-01-29T10:06:00.005Z,100
2017-01-29T10:06:40.548Z,100
2017-01-29T10:07:21.084Z,100
2017-01-29T10:08:01.621Z,95
2017-01-29T10:08:42.150Z,105
2017-01-29T10:09:22.674Z,105
2017-01-29T10:10:03.214Z,120
2017-01-29T10:10:43.748Z,145
2017-01-29T10:11:24.279Z,170
2017-01-29T10:12:04.814Z,170
2017-01-29T10:12:45.356Z,155
2017-01-29T10:13:25.893Z,145
2017-01-29T10:14:06.425Z,115
2017-01-29T10:14:46.961Z,90
2017-01-29T10:15:27.499Z,80
2017-01-29T10:16:08.033Z,70
2017-01-29T10:16:48.578Z,70
2017-01-29T10:17:29.114Z,65
2017-01-29T10:18:09.652Z,75
2017-01-29T10:18:50.194Z,90
2017-01-29T10:19:30.730Z,110
2017-01-29T10:20:11.262Z,125
2017-01-29T10:20:51.795Z,130
2017-01-29T10:21:32.334Z,125
2017-01-29T10:22:12.881Z,105
2017-01-29T10:22:53.417Z,105